createdAt,value
2022-11-20T00:02:26.363Z,16.40
2022-11-20T00:05:13.473Z,17.02
2022-11-20T00:08:00.361Z,18.83
2022-11-20T00:10:49.233Z,16.40
2022-11-20T00:13:41.288Z,19.00
2022-11-20T00:16:39.009Z,18.73
2022-11-20T00:19:27.384Z,18.33
2022-11-20T00:22:15.394Z,16.83
2022-11-20T00:25:11.038Z,19.35
2022-11-20T00:27:58.063Z,18.25
2022-11-20T00:30:46.950Z,18.80
2022-11-20T00:33:34.125Z,17.08
2022-11-20T00:36:26.973Z,17.10
2022-11-20T00:39:13.871Z,19.13
2022-11-20T00:42:00.844Z,18.27
2022-11-20T00:44:50.727Z,19.13
2022-11-20T00:47:37.589Z,15.73
2022-11-20T00:50:25.727Z,18.02
2022-11-20T00:53:12.645Z,17.15
2022-11-20T00:56:06.358Z,16.38
2022-11-20T00:59:01.527Z,19.27
2022-11-20T01:01:50.887Z,17.90
2022-11-20T01:04:37.947Z,17.83
2022-11-20T01:07:27.903Z,19.65
2022-11-20T01:10:15.030Z,17.23
2022-11-20T01:13:25.498Z,16.70
2022-11-20T01:16:15.585Z,18.05
2022-11-20T01:19:05.351Z,17.83
2022-11-20T01:21:55.713Z,17.42
2022-11-20T01:24:47.636Z,18.13
2022-11-20T01:27:37.402Z,17.88
2022-11-20T01:30:24.300Z,18.45
2022-11-20T01:33:11.153Z,19.02
2022-11-20T01:36:07.508Z,17.58
2022-11-20T01:38:55.971Z,18.05
2022-11-20T01:42:05.718Z,17.05
2022-11-20T01:44:59.362Z,17.77
2022-11-20T01:47:50.445Z,18.95
2022-11-20T01:50:39.954Z,17.85
2022-11-20T01:53:29.789Z,18.75
2022-11-20T01:56:17.088Z,18.35
2022-11-20T01:59:05.221Z,17.63
2022-11-20T02:01:52.300Z,18.65
2022-11-20T02:04:40.167Z,17.50
2022-11-20T02:07:27.686Z,16.75
2022-11-20T02:10:14.645Z,17.20
2022-11-20T02:13:21.321Z,16.92
2022-11-20T02:16:13.176Z,17.65
2022-11-20T02:19:03.696Z,16.52
2022-11-20T02:22:03.769Z,16.92
2022-11-20T02:24:51.813Z,18.00
2022-11-20T02:27:38.900Z,17.02
2022-11-20T02:30:25.697Z,17.63
2022-11-20T02:33:14.834Z,19.92
2022-11-20T02:36:01.771Z,17.75
2022-11-20T02:38:49.594Z,18.85
2022-11-20T02:41:38.173Z,17.80
2022-11-20T02:44:27.155Z,19.25
2022-11-20T02:47:16.826Z,19.00
2022-11-20T02:50:04.636Z,18.95
2022-11-20T02:52:51.627Z,18.08
2022-11-20T02:55:40.594Z,19.40
2022-11-20T02:58:27.707Z,19.60
2022-11-20T03:01:14.851Z,18.05
2022-11-20T03:04:01.939Z,19.65
2022-11-20T03:06:48.773Z,19.08
2022-11-20T03:09:38.048Z,19.02
2022-11-20T03:15:14.741Z,18.60
2022-11-20T03:18:01.783Z,18.40
2022-11-20T03:20:48.629Z,17.20
2022-11-20T03:23:35.651Z,19.17
2022-11-20T03:26:25.206Z,18.25
2022-11-20T03:29:12.076Z,18.55
2022-11-20T03:31:59.080Z,20.10
2022-11-20T03:34:45.902Z,19.35
2022-11-20T03:37:35.841Z,18.60
2022-11-20T03:40:22.871Z,17.55
2022-11-20T03:43:10.627Z,18.88
2022-11-20T03:45:57.587Z,17.83
2022-11-20T03:48:50.121Z,18.60
2022-11-20T03:51:38.343Z,17.73
2022-11-20T03:54:25.141Z,18.73
2022-11-20T03:57:11.957Z,20.85
2022-11-20T03:59:59.057Z,16.65
2022-11-20T04:02:45.845Z,19.40
2022-11-20T04:05:34.561Z,18.45
2022-11-20T04:08:21.390Z,22.27
2022-11-20T04:11:25.732Z,18.52
2022-11-20T04:14:15.313Z,19.10
2022-11-20T04:17:02.192Z,18.38
2022-11-20T04:19:49.074Z,18.83
2022-11-20T04:22:35.992Z,18.52
2022-11-20T04:25:22.889Z,18.70
2022-11-20T04:28:09.735Z,19.95
2022-11-20T04:31:06.198Z,19.42
2022-11-20T04:33:53.202Z,17.52
2022-11-20T04:36:40.169Z,19.30
2022-11-20T04:39:29.851Z,16.80
2022-11-20T04:42:31.901Z,18.25
2022-11-20T04:45:18.796Z,16.27
2022-11-20T04:48:05.846Z,18.83
2022-11-20T04:50:52.880Z,16.20
2022-11-20T04:53:39.771Z,18.35
2022-11-20T04:56:26.643Z,19.33
2022-11-20T04:59:13.409Z,17.15
2022-11-20T05:02:00.282Z,18.15
2022-11-20T05:04:47.151Z,17.40
2022-11-20T05:07:34.175Z,17.17
2022-11-20T05:10:20.984Z,17.92
2022-11-20T05:13:10.564Z,19.80
2022-11-20T05:16:02.803Z,17.63
2022-11-20T05:18:50.595Z,20.35
2022-11-20T05:21:37.407Z,16.80
2022-11-20T05:24:24.214Z,17.48
2022-11-20T05:27:11.079Z,19.63
2022-11-20T05:29:57.928Z,19.85
2022-11-20T05:32:44.716Z,16.90
2022-11-20T05:35:31.522Z,18.38
2022-11-20T05:38:18.343Z,17.02
2022-11-20T05:41:15.744Z,18.45
2022-11-20T05:44:02.638Z,17.73
2022-11-20T05:46:49.506Z,16.25
2022-11-20T05:49:36.330Z,16.98
2022-11-20T05:52:23.190Z,18.15
2022-11-20T05:55:10.114Z,18.40
2022-11-20T05:57:56.921Z,17.27
2022-11-20T06:00:43.673Z,17.65
2022-11-20T06:03:30.435Z,17.50
2022-11-20T06:06:20.551Z,18.52
2022-11-20T06:09:07.433Z,19.20
2022-11-20T06:11:54.297Z,15.50
2022-11-20T06:14:41.084Z,17.90
2022-11-20T06:17:27.847Z,17.90
2022-11-20T06:20:14.800Z,16.52
2022-11-20T06:23:03.335Z,17.45
2022-11-20T06:25:50.104Z,15.77
2022-11-20T06:28:38.336Z,15.57
2022-11-20T06:38:58.987Z,17.20
2022-11-20T06:42:09.440Z,16.33
2022-11-20T06:45:14.584Z,17.10
2022-11-20T06:48:12.711Z,17.40
2022-11-20T06:51:32.670Z,17.15
2022-11-20T06:54:21.918Z,15.98
2022-11-20T07:00:30.687Z,15.98
2022-11-20T07:03:22.525Z,16.70
2022-11-20T07:06:16.200Z,17.85
2022-11-20T07:09:08.521Z,17.88
2022-11-20T07:11:58.238Z,15.10
2022-11-20T07:14:45.019Z,15.77
2022-11-20T07:17:40.862Z,18.35
2022-11-20T07:20:43.847Z,18.17
2022-11-20T07:23:30.699Z,16.80
2022-11-20T07:26:17.610Z,17.92
2022-11-20T07:29:04.470Z,17.33
2022-11-20T07:31:51.681Z,18.05
2022-11-20T07:34:38.533Z,17.42
2022-11-20T07:37:25.288Z,15.85
2022-11-20T07:40:13.340Z,17.58
2022-11-20T07:43:01.953Z,15.88
2022-11-20T07:45:51.462Z,15.77
2022-11-20T07:48:38.713Z,15.30
2022-11-20T07:51:31.116Z,17.98
2022-11-20T07:54:17.963Z,18.27
2022-11-20T07:57:04.698Z,19.30
2022-11-20T07:59:51.485Z,17.42
2022-11-20T08:02:40.022Z,17.52
2022-11-20T08:05:29.670Z,17.30
2022-11-20T08:08:21.812Z,16.95
2022-11-20T08:11:27.456Z,17.08
2022-11-20T08:14:14.365Z,17.13
2022-11-20T08:17:01.166Z,16.73
2022-11-20T08:19:48.704Z,16.50
2022-11-20T08:22:35.693Z,16.90
2022-11-20T08:25:22.485Z,17.90
2022-11-20T08:28:21.778Z,16.20
2022-11-20T08:31:10.754Z,17.95
2022-11-20T08:34:07.725Z,16.73
2022-11-20T08:36:56.001Z,18.65
2022-11-20T08:39:43.107Z,16.40
2022-11-20T08:42:29.891Z,16.45
2022-11-20T08:45:17.357Z,17.60
2022-11-20T08:48:05.541Z,18.58
2022-11-20T08:50:52.417Z,16.58
2022-11-20T08:53:39.849Z,16.15
2022-11-20T08:56:26.654Z,16.90
2022-11-20T09:02:22.254Z,17.73
2022-11-20T09:05:09.070Z,17.23
2022-11-20T09:07:59.329Z,15.52
2022-11-20T09:10:46.099Z,15.80
2022-11-20T09:13:34.690Z,17.20
2022-11-20T09:16:21.463Z,15.70
2022-11-20T09:19:36.673Z,15.63
2022-11-20T09:22:15.259Z,18.35
2022-11-20T09:25:02.051Z,18.35
2022-11-20T09:27:48.895Z,17.42
2022-11-20T09:30:35.915Z,16.70
2022-11-20T09:33:25.777Z,16.95
2022-11-20T09:36:12.586Z,18.17
2022-11-20T09:38:59.471Z,16.88
2022-11-20T09:41:59.762Z,17.70
2022-11-20T09:45:04.917Z,18.25
2022-11-20T09:48:33.819Z,18.27
2022-11-20T09:51:32.171Z,17.70
2022-11-20T09:54:20.945Z,17.07
2022-11-20T09:57:22.755Z,16.88
2022-11-20T10:00:19.358Z,17.05
2022-11-20T10:03:15.938Z,16.80
2022-11-20T10:06:03.852Z,16.67
2022-11-20T10:09:00.283Z,17.88
2022-11-20T10:12:14.451Z,19.00
2022-11-20T10:15:11.381Z,18.65
2022-11-20T10:18:19.297Z,17.55
2022-11-20T10:21:12.033Z,16.88
2022-11-20T10:24:28.378Z,17.33
2022-11-20T10:31:04.490Z,15.48
2022-11-20T10:34:11.646Z,17.10
2022-11-20T10:37:11.736Z,18.38
2022-11-20T10:43:15.831Z,19.08
2022-11-20T10:46:47.348Z,16.15
2022-11-20T10:50:41.661Z,16.30
2022-11-20T10:53:59.166Z,16.67
2022-11-20T10:57:29.325Z,16.63
2022-11-20T11:03:40.577Z,14.63
2022-11-20T11:07:24.830Z,18.57
2022-11-20T11:14:57.220Z,16.50
2022-11-20T11:17:53.967Z,15.48
2022-11-20T11:20:58.541Z,14.75
2022-11-20T11:23:49.499Z,15.65
2022-11-20T11:26:39.279Z,14.93
2022-11-20T11:32:50.750Z,13.60
2022-11-20T11:47:20.798Z,12.63
2022-11-20T11:55:10.107Z,12.52
2022-11-20T12:03:23.185Z,12.50
2022-11-20T12:06:31.099Z,13.43
2022-11-20T12:09:37.682Z,11.27
2022-11-20T12:12:57.352Z,10.75
2022-11-20T12:16:21.285Z,10.88
2022-11-20T12:19:55.496Z,10.43
2022-11-20T12:23:26.535Z,9.95
2022-11-20T13:29:44.964Z,6.70
2022-11-20T13:34:03.551Z,5.85
2022-11-20T13:37:34.507Z,6.32
2022-11-20T13:43:44.558Z,6.60
2022-11-20T13:46:43.085Z,5.20
2022-11-20T13:50:01.712Z,6.03
2022-11-20T13:53:26.153Z,6.18
2022-11-20T13:56:39.746Z,6.40
2022-11-20T13:59:37.627Z,5.38
2022-11-20T14:02:26.964Z,5.93
2022-11-20T14:08:28.724Z,5.57
2022-11-20T14:11:19.636Z,3.92
2022-11-20T14:14:25.434Z,6.38
2022-11-20T14:17:24.384Z,5.18
2022-11-20T14:20:24.436Z,6.40
2022-11-20T14:23:14.309Z,5.45
2022-11-20T14:26:03.692Z,4.82
2022-11-20T14:28:52.074Z,5.60
2022-11-20T14:31:38.984Z,5.70
2022-11-20T14:34:28.922Z,6.53
2022-11-20T14:37:39.304Z,6.30
2022-11-20T14:40:41.015Z,5.90
2022-11-20T14:43:37.262Z,6.22
2022-11-20T14:46:24.984Z,6.32
2022-11-20T14:49:15.904Z,5.88
2022-11-20T14:52:15.471Z,7.43
2022-11-20T14:55:08.008Z,7.25
2022-11-20T14:58:08.387Z,6.68
2022-11-20T15:00:57.478Z,6.18
2022-11-20T15:03:46.513Z,6.63
2022-11-20T15:06:36.445Z,7.63
2022-11-20T15:09:26.965Z,7.25
2022-11-20T15:12:19.033Z,6.70
2022-11-20T15:15:07.136Z,6.63
2022-11-20T15:17:54.545Z,7.13
2022-11-20T15:20:41.935Z,6.90
2022-11-20T15:23:38.270Z,6.18
2022-11-20T15:26:29.883Z,6.50
2022-11-20T15:29:29.919Z,5.60
2022-11-20T15:32:16.813Z,6.60
2022-11-20T15:35:06.917Z,6.60
2022-11-20T15:38:00.820Z,8.80
2022-11-20T15:40:49.247Z,6.22
2022-11-20T15:43:48.943Z,7.28
2022-11-20T15:46:45.504Z,5.95
2022-11-20T15:49:32.349Z,7.05
2022-11-20T15:52:19.582Z,7.28
2022-11-20T15:55:10.966Z,7.47
2022-11-20T15:57:57.867Z,6.25
2022-11-20T16:00:45.442Z,6.25
2022-11-20T16:03:44.019Z,5.93
2022-11-20T16:06:32.977Z,5.43
2022-11-20T16:09:22.681Z,6.95
2022-11-20T16:12:30.701Z,6.95
2022-11-20T16:15:39.304Z,6.22
2022-11-20T16:18:26.157Z,5.78
2022-11-20T16:21:16.148Z,7.03
2022-11-20T16:24:05.056Z,7.47
2022-11-20T16:26:52.392Z,6.55
2022-11-20T16:29:39.314Z,5.97
2022-11-20T16:32:26.346Z,6.25
2022-11-20T16:35:16.412Z,6.75
2022-11-20T16:38:03.430Z,5.78
2022-11-20T16:40:56.617Z,6.05
2022-11-20T16:43:48.309Z,6.40
2022-11-20T16:46:35.577Z,5.03
2022-11-20T16:49:22.393Z,5.45
2022-11-20T16:52:09.218Z,6.13
2022-11-20T16:54:55.972Z,5.38
2022-11-20T16:57:43.387Z,4.32
2022-11-20T17:00:30.208Z,4.97
2022-11-20T17:03:18.119Z,5.90
2022-11-20T17:06:15.415Z,4.57
2022-11-20T17:09:02.508Z,5.47
2022-11-20T17:11:52.530Z,4.93
2022-11-20T17:14:39.319Z,4.75
2022-11-20T17:17:26.128Z,4.40
2022-11-20T17:20:13.255Z,4.78
2022-11-20T17:23:02.562Z,4.85
2022-11-20T17:28:38.742Z,4.35
2022-11-20T17:31:31.808Z,6.35
2022-11-20T17:34:23.411Z,5.13
2022-11-20T17:37:12.129Z,5.90
2022-11-20T17:39:59.281Z,5.15
2022-11-20T17:43:04.506Z,5.93
2022-11-20T17:45:58.565Z,4.82
2022-11-20T17:48:45.988Z,4.72
2022-11-20T17:51:35.285Z,6.10
2022-11-20T17:54:36.628Z,5.82
2022-11-20T17:57:59.345Z,5.53
2022-11-20T18:00:57.214Z,5.25
2022-11-20T18:03:46.740Z,5.13
2022-11-20T18:06:33.760Z,6.57
2022-11-20T18:09:22.014Z,4.53
2022-11-20T18:12:17.523Z,5.43
2022-11-20T18:15:13.326Z,4.65
2022-11-20T18:18:22.772Z,3.97
2022-11-20T18:21:11.669Z,4.75
2022-11-20T18:24:01.181Z,5.53
2022-11-20T18:26:49.550Z,3.60
2022-11-20T18:29:36.487Z,5.20
2022-11-20T18:32:35.297Z,5.18
2022-11-20T18:35:29.112Z,5.30
2022-11-20T18:38:18.709Z,5.07
2022-11-20T18:41:05.645Z,5.88
2022-11-20T18:44:12.520Z,5.40
2022-11-20T18:47:14.118Z,5.35
2022-11-20T18:50:37.384Z,5.75
2022-11-20T18:53:33.202Z,6.03
2022-11-20T19:04:06.609Z,6.05
2022-11-20T19:10:35.635Z,6.18
2022-11-20T19:13:28.435Z,7.10
2022-11-20T19:16:38.393Z,5.53
2022-11-20T19:19:38.508Z,7.10
2022-11-20T19:22:39.034Z,6.45
2022-11-20T19:25:48.140Z,5.85
2022-11-20T19:28:39.177Z,4.63
2022-11-20T19:32:03.662Z,6.57
2022-11-20T19:47:19.433Z,5.95
2022-11-20T19:50:18.972Z,6.47
2022-11-20T19:53:33.452Z,5.70
2022-11-20T19:56:56.214Z,5.40
2022-11-20T20:00:32.392Z,5.78
2022-11-20T20:03:27.400Z,6.45
2022-11-20T20:10:56.708Z,7.15
2022-11-20T20:13:42.392Z,6.60
2022-11-20T20:16:52.240Z,7.03
2022-11-20T20:19:42.184Z,7.00
2022-11-20T20:22:38.216Z,6.80
2022-11-20T20:26:06.982Z,7.05
2022-11-20T20:30:31.731Z,6.30
2022-11-20T20:32:14.033Z,7.20
2022-11-20T20:35:21.246Z,6.43
2022-11-20T20:38:34.610Z,6.47
2022-11-20T20:43:55.950Z,6.47
2022-11-20T20:45:48.950Z,6.95
2022-11-20T20:51:57.102Z,6.13
2022-11-20T20:54:52.621Z,6.15
2022-11-20T20:57:53.838Z,6.97
2022-11-20T21:01:00.594Z,6.35
2022-11-20T21:04:35.376Z,6.35
2022-11-20T21:07:23.676Z,7.45
2022-11-20T21:10:13.186Z,7.18
2022-11-20T21:13:10.204Z,7.28
2022-11-20T21:16:13.195Z,7.00
2022-11-20T21:19:07.400Z,7.78
2022-11-20T21:22:36.431Z,7.95
2022-11-20T21:25:28.943Z,7.75
2022-11-20T21:28:25.790Z,7.95
2022-11-20T21:31:44.722Z,8.00
2022-11-20T21:34:42.522Z,8.57
2022-11-20T21:37:34.969Z,8.85
2022-11-20T21:40:24.157Z,8.52
2022-11-20T21:43:11.277Z,8.20
2022-11-20T21:46:12.004Z,8.48
2022-11-20T21:49:15.587Z,8.52
2022-11-20T21:52:05.327Z,8.13
2022-11-20T21:54:58.657Z,8.45
2022-11-20T21:58:12.010Z,8.15
2022-11-20T22:01:18.053Z,8.30
2022-11-20T22:04:15.738Z,9.05
2022-11-20T22:07:10.018Z,8.98
2022-11-20T22:09:57.108Z,7.97
2022-11-20T22:12:44.178Z,7.78
2022-11-20T22:15:53.497Z,7.47
2022-11-20T22:18:48.609Z,7.28
2022-11-20T22:21:39.441Z,6.82
2022-11-20T22:24:26.431Z,7.95
2022-11-20T22:27:13.433Z,8.38
2022-11-20T22:30:03.630Z,7.72
2022-11-20T22:32:56.658Z,7.47
2022-11-20T22:35:44.941Z,6.95
2022-11-20T22:38:39.045Z,7.22
2022-11-20T22:41:28.188Z,6.38
2022-11-20T22:44:16.099Z,7.25
2022-11-20T22:47:06.288Z,8.10
2022-11-20T22:50:04.067Z,6.93
2022-11-20T22:52:53.976Z,6.45
2022-11-20T22:55:40.774Z,6.18
2022-11-20T22:58:31.286Z,7.25
2022-11-20T23:01:22.263Z,6.68
2022-11-20T23:04:10.691Z,7.05
2022-11-20T23:06:57.529Z,6.30
2022-11-20T23:09:44.409Z,5.95
2022-11-20T23:12:31.285Z,6.63
2022-11-20T23:15:21.078Z,4.75
2022-11-20T23:18:07.862Z,5.85
2022-11-20T23:20:54.714Z,6.05
2022-11-20T23:23:42.455Z,6.22
2022-11-20T23:26:31.607Z,6.38
2022-11-20T23:29:18.729Z,5.13
2022-11-20T23:32:08.314Z,4.95
2022-11-20T23:34:57.680Z,6.28
2022-11-20T23:37:44.555Z,4.03
2022-11-20T23:40:31.343Z,5.05
2022-11-20T23:43:20.927Z,4.80
2022-11-20T23:46:17.156Z,3.80
2022-11-20T23:49:06.334Z,4.97
2022-11-20T23:51:56.009Z,5.43
2022-11-20T23:54:42.819Z,4.85
2022-11-20T23:57:29.660Z,4.28
